createdAt,value
2023-06-07T00:01:55.048Z,71.12
2023-06-07T00:04:22.085Z,71.41
2023-06-07T00:06:51.028Z,71.90
2023-06-07T00:09:17.497Z,71.04
2023-06-07T00:11:44.313Z,71.84
2023-06-07T00:14:10.784Z,72.66
2023-06-07T00:16:40.328Z,71.72
2023-06-07T00:19:06.798Z,71.62
2023-06-07T00:21:33.247Z,71.12
2023-06-07T00:23:59.727Z,72.00
2023-06-07T00:26:26.262Z,72.11
2023-06-07T00:28:52.992Z,71.89
2023-06-07T00:31:19.397Z,71.35
2023-06-07T00:33:45.959Z,71.01
2023-06-07T00:36:12.366Z,70.50
2023-06-07T00:38:38.790Z,70.75
2023-06-07T00:41:05.217Z,71.37
2023-06-07T00:43:33.988Z,72.15
2023-06-07T00:46:00.667Z,72.51
2023-06-07T00:48:28.423Z,72.50
2023-06-07T00:50:54.933Z,74.18
2023-06-07T00:53:21.746Z,73.05
2023-06-07T00:55:48.400Z,72.20
2023-06-07T00:58:14.853Z,71.65
2023-06-07T01:03:42.040Z,70.64
2023-06-07T01:06:08.493Z,70.93
2023-06-07T01:08:35.066Z,71.43
2023-06-07T01:11:02.167Z,71.09
2023-06-07T01:13:29.889Z,70.92
2023-06-07T01:15:56.450Z,70.83
2023-06-07T01:18:23.191Z,70.84
2023-06-07T01:20:52.711Z,71.40
2023-06-07T01:23:19.243Z,72.05
2023-06-07T01:25:45.770Z,72.53
2023-06-07T01:28:12.530Z,74.35
2023-06-07T01:30:39.364Z,74.54
2023-06-07T01:33:06.390Z,75.67
2023-06-07T01:35:33.472Z,75.11
2023-06-07T01:38:00.807Z,75.81
2023-06-07T01:40:27.776Z,76.31
2023-06-07T01:42:54.740Z,73.73
2023-06-07T01:45:21.280Z,72.40
2023-06-07T01:47:47.671Z,72.03
2023-06-07T01:50:20.094Z,71.94
2023-06-07T01:52:46.434Z,72.45
2023-06-07T01:55:12.865Z,73.08
2023-06-07T01:58:05.301Z,76.14
2023-06-07T02:00:35.695Z,77.32
2023-06-07T02:03:05.278Z,77.22
2023-06-07T02:05:37.193Z,78.52
2023-06-07T02:08:07.756Z,79.48
2023-06-07T02:10:35.332Z,79.45
2023-06-07T02:13:03.506Z,78.96
2023-06-07T02:15:29.925Z,78.88
2023-06-07T02:17:59.388Z,78.27
2023-06-07T02:20:26.648Z,78.52
2023-06-07T02:22:54.717Z,79.26
2023-06-07T02:25:21.204Z,79.19
2023-06-07T02:27:49.223Z,78.96
2023-06-07T02:30:15.724Z,78.10
2023-06-07T02:32:42.559Z,78.26
2023-06-07T02:35:09.115Z,77.94
2023-06-07T02:37:35.587Z,77.89
2023-06-07T02:40:02.532Z,78.36
2023-06-07T02:42:30.538Z,78.99
2023-06-07T02:44:57.153Z,79.00
2023-06-07T02:47:23.713Z,78.73
2023-06-07T02:49:50.431Z,78.32
2023-06-07T02:52:16.782Z,77.84
2023-06-07T02:54:43.182Z,77.54
2023-06-07T02:57:09.574Z,77.17
2023-06-07T02:59:35.990Z,77.35
2023-06-07T03:02:02.549Z,77.36
2023-06-07T03:04:29.590Z,76.80
2023-06-07T03:06:57.846Z,76.14
2023-06-07T03:09:28.671Z,75.43
2023-06-07T03:11:55.187Z,75.62
2023-06-07T03:14:22.451Z,75.59
2023-06-07T03:16:49.429Z,75.65
2023-06-07T03:19:16.310Z,75.74
2023-06-07T03:21:42.949Z,75.60
2023-06-07T03:24:09.523Z,75.56
2023-06-07T03:26:36.363Z,75.36
2023-06-07T03:29:03.000Z,76.00
2023-06-07T03:31:33.076Z,75.77
2023-06-07T03:34:02.718Z,75.90
2023-06-07T03:36:29.425Z,75.04
2023-06-07T03:38:57.066Z,73.79
2023-06-07T03:41:23.641Z,73.60
2023-06-07T03:43:50.592Z,74.26
2023-06-07T03:46:17.141Z,74.23
2023-06-07T03:48:44.017Z,74.13
2023-06-07T03:51:10.440Z,73.63
2023-06-07T03:53:38.727Z,72.97
2023-06-07T03:56:05.537Z,72.14
2023-06-07T03:58:32.585Z,71.94
2023-06-07T04:01:04.258Z,71.87
2023-06-07T04:03:30.784Z,72.00
2023-06-07T04:05:59.803Z,72.04
2023-06-07T04:08:27.258Z,72.06
2023-06-07T04:10:53.715Z,72.10
2023-06-07T04:13:20.215Z,74.47
2023-06-07T04:15:46.889Z,74.56
2023-06-07T04:18:13.416Z,72.66
2023-06-07T04:20:40.380Z,72.22
2023-06-07T04:23:07.421Z,72.44
2023-06-07T04:25:33.960Z,72.83
2023-06-07T04:28:02.235Z,73.56
2023-06-07T04:30:29.589Z,73.68
2023-06-07T04:32:56.083Z,74.26
2023-06-07T04:35:22.962Z,75.42
2023-06-07T04:37:49.675Z,76.42
2023-06-07T04:40:16.390Z,76.36
2023-06-07T04:42:53.348Z,73.99
2023-06-07T04:45:19.963Z,75.75
2023-06-07T04:47:46.620Z,76.07
2023-06-07T04:50:14.528Z,76.34
2023-06-07T04:52:40.925Z,77.33
2023-06-07T04:55:07.615Z,77.77
2023-06-07T04:57:34.267Z,77.78
2023-06-07T05:00:00.815Z,77.55
2023-06-07T05:02:34.484Z,77.76
2023-06-07T05:05:00.878Z,78.10
2023-06-07T05:07:28.047Z,77.72
2023-06-07T05:09:55.345Z,77.84
2023-06-07T05:12:22.608Z,77.02
2023-06-07T05:14:50.252Z,76.66
2023-06-07T05:17:17.057Z,75.41
2023-06-07T05:19:43.437Z,75.96
2023-06-07T05:22:10.086Z,75.31
2023-06-07T05:24:36.854Z,76.46
2023-06-07T05:27:03.348Z,75.94
2023-06-07T05:29:29.787Z,75.59
2023-06-07T05:31:56.855Z,75.39
2023-06-07T05:34:23.435Z,75.19
2023-06-07T05:36:49.987Z,74.42
2023-06-07T05:39:16.450Z,74.90
2023-06-07T05:41:44.218Z,74.64
2023-06-07T05:44:10.767Z,74.21
2023-06-07T05:46:37.302Z,73.66
2023-06-07T05:49:03.781Z,71.91
2023-06-07T05:51:30.320Z,71.80
2023-06-07T05:53:56.706Z,71.71
2023-06-07T05:56:23.079Z,71.92
2023-06-07T05:58:49.493Z,71.83
2023-06-07T06:01:16.059Z,71.38
2023-06-07T06:03:42.497Z,71.91
2023-06-07T06:06:12.722Z,71.93
2023-06-07T06:08:39.205Z,71.64
2023-06-07T06:11:05.678Z,71.97
2023-06-07T06:13:32.565Z,71.87
2023-06-07T06:15:58.989Z,70.98
2023-06-07T06:18:25.541Z,71.00
2023-06-07T06:20:51.948Z,70.15
2023-06-07T06:23:18.444Z,70.21
2023-06-07T06:25:45.028Z,70.24
2023-06-07T06:28:11.481Z,69.95
2023-06-07T06:30:38.031Z,69.78
2023-06-07T06:33:04.490Z,69.62
2023-06-07T06:35:30.880Z,69.99
2023-06-07T06:37:57.413Z,69.84
2023-06-07T06:40:24.036Z,69.70
2023-06-07T06:42:50.424Z,69.85
2023-06-07T06:45:22.433Z,69.52
2023-06-07T06:47:48.918Z,69.58
2023-06-07T06:50:31.438Z,68.67
2023-06-07T06:52:59.868Z,68.53
2023-06-07T06:55:26.314Z,68.47
2023-06-07T06:57:52.712Z,68.36
2023-06-07T07:00:19.438Z,68.35
2023-06-07T07:02:46.022Z,67.24
2023-06-07T07:05:12.514Z,67.35
2023-06-07T07:07:38.971Z,66.43
2023-06-07T07:10:06.358Z,66.73
2023-06-07T07:12:32.937Z,66.29
2023-06-07T07:14:59.463Z,65.47
2023-06-07T07:17:25.913Z,66.12
2023-06-07T07:19:52.405Z,66.56
2023-06-07T07:22:18.890Z,66.30
2023-06-07T07:24:45.298Z,65.52
2023-06-07T07:27:11.740Z,63.26
2023-06-07T07:29:38.207Z,64.96
2023-06-07T07:32:04.916Z,64.70
2023-06-07T07:34:31.388Z,63.72
2023-06-07T07:36:57.859Z,62.63
2023-06-07T07:39:24.233Z,61.81
2023-06-07T07:41:50.613Z,63.13
2023-06-07T07:44:19.845Z,62.36
2023-06-07T07:46:46.278Z,61.53
2023-06-07T07:49:12.730Z,60.89
2023-06-07T07:51:39.251Z,60.15
2023-06-07T07:54:06.346Z,62.26
2023-06-07T07:56:32.725Z,60.52
2023-06-07T07:58:59.160Z,60.05
2023-06-07T08:01:25.541Z,61.85
2023-06-07T08:03:52.137Z,59.97
2023-06-07T08:06:18.829Z,59.84
2023-06-07T08:08:48.261Z,59.29
2023-06-07T08:11:14.723Z,58.55
2023-06-07T08:13:41.293Z,57.61
2023-06-07T08:16:07.756Z,57.48
2023-06-07T08:18:34.110Z,57.13
2023-06-07T08:21:00.750Z,57.08
2023-06-07T08:23:27.234Z,55.86
2023-06-07T08:25:53.641Z,57.62
2023-06-07T08:28:20.035Z,56.97
2023-06-07T08:30:46.548Z,55.08
2023-06-07T08:33:12.993Z,55.47
2023-06-07T08:35:39.442Z,55.43
2023-06-07T08:38:05.811Z,57.28
2023-06-07T08:40:32.905Z,55.60
2023-06-07T08:42:59.316Z,56.18
2023-06-07T08:45:25.698Z,54.64
2023-06-07T08:47:52.178Z,54.59
2023-06-07T08:50:21.182Z,56.33
2023-06-07T08:52:50.102Z,55.50
2023-06-07T08:55:16.865Z,55.04
2023-06-07T08:57:46.159Z,53.76
2023-06-07T09:00:13.130Z,55.72
2023-06-07T09:02:39.784Z,55.48
2023-06-07T09:05:06.860Z,54.81
2023-06-07T09:07:33.958Z,54.20
2023-06-07T09:10:00.426Z,52.65
2023-06-07T09:12:26.841Z,51.16
2023-06-07T09:14:53.900Z,51.15
2023-06-07T09:17:20.415Z,52.04
2023-06-07T09:19:46.880Z,52.81
2023-06-07T09:22:13.542Z,52.63
2023-06-07T09:24:40.338Z,51.07
2023-06-07T09:27:07.412Z,49.67
2023-06-07T09:29:43.454Z,49.92
2023-06-07T09:32:22.644Z,49.59
2023-06-07T09:34:52.069Z,49.09
2023-06-07T09:37:19.390Z,48.85
2023-06-07T09:39:45.898Z,48.70
2023-06-07T09:42:15.864Z,48.91
2023-06-07T09:44:42.624Z,48.16
2023-06-07T09:47:29.505Z,49.77
2023-06-07T09:50:05.824Z,48.95
2023-06-07T09:52:32.471Z,49.02
2023-06-07T09:54:58.862Z,47.95
2023-06-07T09:57:25.255Z,49.60
2023-06-07T09:59:58.959Z,48.99
2023-06-07T10:02:26.543Z,46.66
2023-06-07T10:04:54.427Z,46.22
2023-06-07T10:07:27.041Z,46.54
2023-06-07T10:09:54.045Z,47.76
2023-06-07T10:12:22.368Z,48.31
2023-06-07T10:14:49.304Z,47.93
2023-06-07T10:17:16.803Z,48.99
2023-06-07T10:19:49.561Z,46.40
2023-06-07T10:22:20.111Z,46.04
2023-06-07T10:24:56.973Z,46.68
2023-06-07T10:27:24.223Z,47.19
2023-06-07T10:30:01.961Z,47.45
2023-06-07T10:32:29.485Z,46.58
2023-06-07T10:34:56.583Z,46.09
2023-06-07T10:40:01.523Z,43.73
2023-06-07T10:53:51.883Z,42.93
2023-06-07T10:56:53.426Z,43.19
2023-06-07T10:59:20.865Z,44.05
2023-06-07T11:01:48.639Z,42.94
2023-06-07T11:04:33.759Z,42.82
2023-06-07T11:07:16.719Z,42.20
2023-06-07T11:09:47.769Z,41.14
2023-06-07T11:20:04.434Z,40.14
2023-06-07T11:22:52.462Z,37.51
2023-06-07T11:45:07.803Z,36.85
2023-06-07T12:28:26.329Z,37.52
2023-06-07T12:30:52.923Z,37.11
2023-06-07T12:33:19.409Z,34.89
2023-06-07T12:35:46.710Z,34.08
2023-06-07T12:38:13.196Z,34.22
2023-06-07T12:40:39.642Z,34.46
2023-06-07T12:43:06.160Z,34.01
2023-06-07T12:45:32.572Z,34.18
2023-06-07T12:48:00.002Z,33.27
2023-06-07T12:50:29.802Z,33.36
2023-06-07T12:52:59.051Z,31.58
2023-06-07T12:55:26.624Z,31.52
2023-06-07T12:57:55.913Z,33.26
2023-06-07T13:00:29.204Z,31.36
2023-06-07T13:02:58.868Z,30.21
2023-06-07T13:05:25.664Z,30.26
2023-06-07T13:07:52.103Z,29.85
2023-06-07T13:10:18.559Z,29.31
2023-06-07T13:12:44.945Z,29.75
2023-06-07T13:15:11.390Z,29.80
2023-06-07T13:17:38.176Z,29.35
2023-06-07T13:20:05.350Z,29.25
2023-06-07T13:22:32.274Z,28.29
2023-06-07T13:24:59.122Z,25.82
2023-06-07T13:27:25.549Z,26.43
2023-06-07T14:00:31.031Z,26.64
2023-06-07T14:02:57.519Z,24.97
2023-06-07T14:05:23.972Z,24.86
2023-06-07T14:07:50.491Z,25.63
2023-06-07T14:10:16.917Z,25.91
2023-06-07T14:12:43.321Z,26.15
2023-06-07T14:15:10.002Z,27.46
2023-06-07T14:17:36.432Z,26.33
2023-06-07T14:20:03.040Z,26.76
2023-06-07T14:22:29.656Z,25.06
2023-06-07T14:24:56.039Z,24.98
2023-06-07T14:27:22.661Z,24.96
2023-06-07T14:29:49.061Z,24.28
2023-06-07T14:32:15.751Z,25.28
2023-06-07T14:34:42.327Z,26.25
2023-06-07T14:37:08.734Z,26.12
2023-06-07T14:39:37.451Z,26.12
2023-06-07T14:42:03.976Z,25.96
2023-06-07T14:44:30.476Z,26.82
2023-06-07T14:46:56.909Z,26.62
2023-06-07T14:49:23.320Z,24.19
2023-06-07T14:51:49.724Z,24.72
2023-06-07T14:54:18.910Z,25.13
2023-06-07T14:56:45.490Z,23.56
2023-06-07T14:59:13.855Z,23.92
2023-06-07T15:01:41.646Z,25.26
2023-06-07T15:04:08.611Z,26.95
2023-06-07T15:06:35.339Z,27.65
2023-06-07T15:09:02.127Z,27.35
2023-06-07T15:11:28.932Z,27.23
2023-06-07T15:13:55.874Z,26.85
2023-06-07T16:35:31.345Z,36.52
2023-06-07T16:38:46.461Z,35.11
2023-06-07T16:48:36.743Z,35.26
2023-06-07T16:52:06.937Z,35.95
2023-06-07T16:57:23.893Z,36.99
2023-06-07T16:59:52.380Z,36.59
2023-06-07T17:02:24.135Z,36.67
2023-06-07T17:05:02.458Z,38.36
2023-06-07T17:07:53.986Z,38.96
2023-06-07T17:10:29.656Z,39.52
2023-06-07T17:13:01.268Z,40.53
2023-06-07T17:15:27.708Z,41.85
2023-06-07T17:17:54.159Z,42.90
2023-06-07T17:20:20.526Z,43.41
2023-06-07T17:22:46.946Z,44.45
2023-06-07T17:25:13.371Z,44.67
2023-06-07T17:27:39.659Z,45.65
2023-06-07T17:30:09.053Z,44.33
2023-06-07T17:32:35.687Z,44.08
2023-06-07T17:35:05.596Z,45.79
2023-06-07T17:37:32.043Z,45.91
2023-06-07T17:39:58.722Z,47.44
2023-06-07T17:42:25.215Z,48.18
2023-06-07T17:44:51.972Z,47.77
2023-06-07T17:47:18.969Z,47.39
2023-06-07T17:49:45.727Z,47.72
2023-06-07T17:52:21.568Z,49.39
2023-06-07T17:54:51.224Z,48.32
2023-06-07T17:57:17.745Z,50.67
2023-06-07T17:59:45.021Z,50.41
2023-06-07T18:02:11.565Z,50.52
2023-06-07T18:04:38.360Z,50.99
2023-06-07T18:07:05.300Z,49.26
2023-06-07T18:09:34.741Z,47.43
2023-06-07T18:12:01.600Z,47.58
2023-06-07T18:14:28.408Z,50.54
2023-06-07T18:16:57.586Z,47.16
2023-06-07T18:19:24.373Z,48.00
2023-06-07T18:21:53.562Z,47.00
2023-06-07T18:24:24.270Z,46.09
2023-06-07T18:26:50.929Z,45.97
2023-06-07T18:29:17.556Z,46.03
2023-06-07T18:31:44.057Z,47.32
2023-06-07T18:34:10.897Z,46.82
2023-06-07T18:36:37.592Z,49.33
2023-06-07T18:39:04.038Z,49.45
2023-06-07T18:41:33.875Z,50.31
2023-06-07T18:44:00.377Z,51.99
2023-06-07T18:46:27.120Z,53.08
2023-06-07T18:48:53.634Z,49.62
2023-06-07T18:51:20.108Z,48.72
2023-06-07T18:53:46.469Z,48.44
2023-06-07T18:59:14.180Z,49.10
2023-06-07T19:01:51.389Z,48.37
2023-06-07T19:04:19.152Z,49.16
2023-06-07T19:06:50.434Z,49.89
2023-06-07T19:09:21.357Z,52.25
2023-06-07T19:11:47.766Z,53.25
2023-06-07T19:14:14.464Z,52.74
2023-06-07T19:16:41.181Z,53.06
2023-06-07T19:19:07.954Z,52.45
2023-06-07T19:21:34.446Z,53.12
2023-06-07T19:24:04.097Z,52.91
2023-06-07T19:26:31.034Z,53.12
2023-06-07T19:28:58.705Z,53.34
2023-06-07T19:31:25.316Z,53.76
2023-06-07T19:33:52.225Z,55.22
2023-06-07T19:36:18.728Z,55.76
2023-06-07T19:38:45.119Z,56.10
2023-06-07T19:41:26.784Z,56.03
2023-06-07T19:43:53.587Z,57.54
2023-06-07T19:46:20.027Z,56.96
2023-06-07T19:48:46.569Z,55.55
2023-06-07T19:51:13.326Z,58.53
2023-06-07T19:53:39.850Z,57.75
2023-06-07T19:56:06.275Z,59.40
2023-06-07T19:58:32.720Z,61.76
2023-06-07T20:00:59.183Z,61.87
2023-06-07T20:03:25.848Z,58.45
2023-06-07T20:05:53.478Z,55.36
2023-06-07T20:08:19.875Z,55.65
2023-06-07T20:10:46.525Z,56.14
2023-06-07T20:13:13.588Z,56.06
2023-06-07T20:15:40.148Z,55.44
2023-06-07T20:18:06.617Z,55.94
2023-06-07T20:20:33.331Z,57.82
2023-06-07T20:23:00.856Z,58.18
2023-06-07T20:25:27.365Z,59.06
2023-06-07T20:27:54.244Z,59.11
2023-06-07T20:30:20.777Z,59.50
2023-06-07T20:32:47.350Z,58.79
2023-06-07T20:35:14.095Z,59.11
2023-06-07T20:40:41.874Z,59.49
2023-06-07T20:43:08.386Z,59.74
2023-06-07T20:45:34.914Z,59.72
2023-06-07T20:48:01.700Z,57.78
2023-06-07T20:50:28.264Z,56.93
2023-06-07T20:52:54.726Z,57.08
2023-06-07T20:55:21.184Z,58.02
2023-06-07T20:57:48.255Z,57.83
2023-06-07T21:00:14.861Z,57.18
2023-06-07T21:02:41.455Z,57.10
2023-06-07T21:05:08.153Z,57.16
2023-06-07T21:07:34.874Z,57.27
2023-06-07T21:10:01.410Z,57.47
2023-06-07T21:12:28.279Z,57.51
2023-06-07T21:14:54.704Z,57.62
2023-06-07T21:17:21.501Z,57.69
2023-06-07T21:19:48.042Z,57.74
2023-06-07T21:22:14.523Z,57.80
2023-06-07T21:24:40.925Z,57.89
2023-06-07T21:27:07.424Z,58.09
2023-06-07T21:29:34.060Z,58.17
2023-06-07T21:32:00.796Z,58.36
2023-06-07T21:34:27.648Z,58.66
2023-06-07T21:36:54.034Z,58.83
2023-06-07T21:39:20.498Z,58.89
2023-06-07T21:41:46.981Z,59.05
2023-06-07T21:44:13.371Z,60.24
2023-06-07T21:46:39.872Z,62.15
2023-06-07T21:49:06.439Z,62.06
2023-06-07T21:52:04.679Z,61.61
2023-06-07T21:54:31.302Z,60.70
2023-06-07T21:57:14.382Z,63.90
2023-06-07T21:59:41.691Z,64.35
2023-06-07T22:02:09.511Z,63.88
2023-06-07T22:04:36.062Z,64.04
2023-06-07T22:07:09.686Z,63.67
2023-06-07T22:09:38.382Z,61.58
2023-06-07T22:12:14.239Z,61.36
2023-06-07T22:14:40.879Z,61.32
2023-06-07T22:17:07.341Z,60.92
2023-06-07T22:19:33.839Z,61.28
2023-06-07T22:22:00.292Z,62.24
2023-06-07T22:24:26.710Z,63.82
2023-06-07T22:26:53.801Z,63.69
2023-06-07T22:29:20.184Z,64.55
2023-06-07T22:31:46.894Z,65.85
2023-06-07T22:34:14.370Z,65.75
2023-06-07T22:36:40.821Z,66.42
2023-06-07T22:39:08.893Z,68.63
2023-06-07T22:41:35.408Z,68.38
2023-06-07T22:44:01.984Z,67.35
2023-06-07T22:46:28.591Z,68.18
2023-06-07T22:48:55.184Z,68.06
2023-06-07T22:51:21.820Z,67.88
2023-06-07T22:53:48.146Z,68.43
2023-06-07T22:56:14.957Z,69.03
2023-06-07T22:58:41.543Z,67.88
2023-06-07T23:01:07.920Z,67.56
2023-06-07T23:03:34.506Z,69.11
2023-06-07T23:06:01.523Z,71.40
2023-06-07T23:08:28.169Z,71.55
2023-06-07T23:10:55.143Z,71.23
2023-06-07T23:13:22.741Z,70.57
2023-06-07T23:15:49.430Z,71.51
2023-06-07T23:18:16.342Z,70.44
2023-06-07T23:20:43.587Z,70.29
2023-06-07T23:23:10.218Z,71.36
2023-06-07T23:25:36.640Z,71.65
2023-06-07T23:28:03.039Z,71.32
2023-06-07T23:30:29.709Z,73.28
2023-06-07T23:32:56.332Z,74.41
2023-06-07T23:35:23.046Z,75.44
2023-06-07T23:37:49.559Z,76.05
2023-06-07T23:40:16.042Z,75.66
2023-06-07T23:42:42.941Z,74.74
2023-06-07T23:45:09.591Z,74.69
2023-06-07T23:47:36.158Z,74.57
2023-06-07T23:50:06.665Z,74.53
2023-06-07T23:52:33.471Z,74.44
2023-06-07T23:54:59.904Z,73.62
2023-06-07T23:57:26.615Z,73.89
2023-06-07T23:59:52.965Z,73.76
